createdAt,value
2023-03-29T00:01:06.829Z,89.84
2023-03-29T00:03:35.801Z,90.03
2023-03-29T00:06:05.978Z,89.98
2023-03-29T00:08:35.359Z,89.67
2023-03-29T00:11:04.107Z,89.95
2023-03-29T00:13:32.753Z,89.82
2023-03-29T00:16:01.107Z,89.77
2023-03-29T00:18:29.466Z,89.95
2023-03-29T00:21:01.557Z,89.96
2023-03-29T00:23:31.590Z,89.79
2023-03-29T00:25:59.872Z,89.63
2023-03-29T00:28:28.234Z,89.63
2023-03-29T00:31:05.774Z,89.52
2023-03-29T00:33:34.133Z,89.54
2023-03-29T00:36:04.018Z,89.55
2023-03-29T00:38:33.962Z,89.45
2023-03-29T00:41:02.750Z,89.36
2023-03-29T00:43:31.703Z,89.50
2023-03-29T00:46:00.274Z,89.19
2023-03-29T00:48:30.285Z,89.10
2023-03-29T00:51:01.769Z,89.28
2023-03-29T00:53:34.553Z,88.99
2023-03-29T00:56:06.519Z,88.90
2023-03-29T00:58:38.027Z,88.92
2023-03-29T01:01:11.714Z,88.87
2023-03-29T01:03:46.692Z,88.60
2023-03-29T01:06:18.539Z,88.17
2023-03-29T01:08:51.730Z,88.07
2023-03-29T01:11:22.381Z,88.03
2023-03-29T01:13:53.272Z,88.20
2023-03-29T01:16:22.746Z,87.90
2023-03-29T01:18:52.330Z,87.85
2023-03-29T01:21:29.486Z,87.73
2023-03-29T01:24:20.748Z,87.80
2023-03-29T01:26:55.379Z,87.69
2023-03-29T01:29:27.374Z,87.57
2023-03-29T01:32:00.439Z,87.21
2023-03-29T01:34:33.737Z,86.75
2023-03-29T01:37:06.102Z,86.50
2023-03-29T01:39:36.571Z,86.51
2023-03-29T01:42:12.128Z,86.48
2023-03-29T01:44:49.168Z,86.26
2023-03-29T01:47:23.627Z,86.35
2023-03-29T01:49:58.898Z,86.28
2023-03-29T01:52:31.103Z,85.86
2023-03-29T01:55:03.929Z,85.68
2023-03-29T01:57:34.369Z,85.57
2023-03-29T02:00:11.557Z,85.74
2023-03-29T02:02:44.156Z,85.62
2023-03-29T02:05:14.320Z,85.00
2023-03-29T02:07:43.872Z,85.19
2023-03-29T02:10:13.173Z,85.00
2023-03-29T02:12:41.529Z,84.91
2023-03-29T02:15:15.950Z,84.65
2023-03-29T02:17:45.060Z,84.53
2023-03-29T02:20:17.737Z,84.42
2023-03-29T02:22:51.409Z,84.32
2023-03-29T02:25:22.730Z,83.89
2023-03-29T02:27:51.093Z,84.41
2023-03-29T02:30:22.353Z,84.45
2023-03-29T02:32:55.524Z,84.66
2023-03-29T02:35:29.296Z,84.44
2023-03-29T02:37:59.872Z,84.26
2023-03-29T02:40:28.236Z,84.21
2023-03-29T02:42:57.474Z,84.15
2023-03-29T02:45:27.786Z,84.49
2023-03-29T02:47:58.264Z,84.72
2023-03-29T02:50:29.320Z,84.25
2023-03-29T02:53:00.307Z,84.71
2023-03-29T02:55:31.424Z,84.75
2023-03-29T02:57:59.687Z,84.75
2023-03-29T03:00:29.523Z,84.93
2023-03-29T03:03:00.638Z,84.76
2023-03-29T03:05:30.776Z,84.71
2023-03-29T03:07:59.671Z,84.49
2023-03-29T03:10:28.173Z,84.82
2023-03-29T03:12:56.597Z,84.72
2023-03-29T03:15:26.512Z,84.78
2023-03-29T03:17:56.317Z,84.03
2023-03-29T03:20:24.553Z,84.58
2023-03-29T03:22:52.831Z,84.29
2023-03-29T03:25:22.204Z,84.11
2023-03-29T03:27:50.991Z,84.15
2023-03-29T03:30:19.342Z,83.67
2023-03-29T03:32:48.193Z,83.08
2023-03-29T03:35:18.219Z,82.81
2023-03-29T03:37:46.928Z,82.97
2023-03-29T03:40:15.603Z,83.24
2023-03-29T03:42:44.135Z,83.04
2023-03-29T03:45:12.771Z,82.96
2023-03-29T03:47:41.342Z,83.18
2023-03-29T03:50:11.674Z,83.06
2023-03-29T03:52:41.419Z,82.99
2023-03-29T03:55:10.840Z,82.66
2023-03-29T03:57:39.928Z,82.50
2023-03-29T04:00:19.554Z,82.28
2023-03-29T04:02:49.417Z,82.38
2023-03-29T04:05:18.655Z,81.64
2023-03-29T04:07:49.041Z,81.51
2023-03-29T04:10:17.408Z,81.31
2023-03-29T04:12:45.752Z,81.61
2023-03-29T04:15:14.211Z,80.98
2023-03-29T04:17:42.653Z,80.83
2023-03-29T04:20:12.881Z,80.10
2023-03-29T04:22:42.039Z,80.41
2023-03-29T04:25:12.178Z,79.86
2023-03-29T04:27:41.665Z,79.85
2023-03-29T04:30:11.018Z,79.55
2023-03-29T04:32:39.429Z,79.36
2023-03-29T04:35:08.431Z,79.26
2023-03-29T04:37:40.538Z,78.94
2023-03-29T04:40:14.591Z,79.20
2023-03-29T04:42:44.499Z,79.00
2023-03-29T04:45:14.094Z,78.88
2023-03-29T04:47:43.714Z,78.30
2023-03-29T04:50:12.727Z,78.44
2023-03-29T04:52:41.047Z,77.74
2023-03-29T04:55:12.238Z,78.19
2023-03-29T04:57:41.407Z,77.72
2023-03-29T05:00:15.461Z,77.74
2023-03-29T05:02:44.442Z,77.47
2023-03-29T05:05:13.365Z,77.19
2023-03-29T05:07:42.962Z,76.96
2023-03-29T05:10:13.655Z,76.64
2023-03-29T05:12:41.954Z,76.98
2023-03-29T05:15:11.470Z,77.08
2023-03-29T05:17:42.436Z,76.59
2023-03-29T05:20:12.936Z,76.99
2023-03-29T05:22:41.422Z,77.11
2023-03-29T05:25:11.617Z,76.38
2023-03-29T05:27:42.811Z,76.62
2023-03-29T05:30:12.531Z,76.21
2023-03-29T05:32:40.932Z,75.95
2023-03-29T05:35:10.117Z,75.83
2023-03-29T05:37:39.134Z,75.22
2023-03-29T05:40:10.628Z,75.48
2023-03-29T05:42:39.439Z,74.78
2023-03-29T05:45:10.816Z,75.03
2023-03-29T05:47:39.105Z,75.12
2023-03-29T05:50:10.526Z,74.73
2023-03-29T05:52:38.845Z,74.69
2023-03-29T05:55:08.100Z,74.06
2023-03-29T05:57:37.762Z,73.62
2023-03-29T06:00:14.914Z,73.20
2023-03-29T06:02:45.151Z,72.65
2023-03-29T06:05:13.996Z,73.29
2023-03-29T06:07:42.601Z,73.01
2023-03-29T06:10:11.741Z,72.83
2023-03-29T06:12:41.253Z,73.23
2023-03-29T06:15:10.378Z,72.81
2023-03-29T06:17:39.829Z,72.44
2023-03-29T06:20:11.997Z,72.72
2023-03-29T06:22:40.558Z,72.70
2023-03-29T06:25:11.095Z,72.73
2023-03-29T06:27:39.425Z,72.45
2023-03-29T06:30:09.204Z,71.78
2023-03-29T06:32:37.639Z,71.95
2023-03-29T06:35:06.403Z,71.97
2023-03-29T06:37:36.190Z,71.63
2023-03-29T06:40:07.550Z,71.71
2023-03-29T06:42:37.200Z,71.25
2023-03-29T06:45:06.293Z,71.37
2023-03-29T06:47:34.687Z,71.78
2023-03-29T06:50:03.347Z,71.71
2023-03-29T06:52:31.747Z,72.03
2023-03-29T06:55:02.090Z,71.54
2023-03-29T06:57:32.254Z,71.41
2023-03-29T07:00:00.636Z,70.96
2023-03-29T07:02:29.144Z,70.92
2023-03-29T07:04:57.639Z,70.77
2023-03-29T07:07:33.236Z,70.29
2023-03-29T07:10:02.993Z,70.07
2023-03-29T07:12:31.483Z,70.48
2023-03-29T07:15:00.347Z,70.75
2023-03-29T07:17:29.021Z,71.37
2023-03-29T07:19:57.320Z,72.60
2023-03-29T07:22:25.609Z,73.63
2023-03-29T07:24:54.516Z,73.03
2023-03-29T07:27:24.152Z,72.65
2023-03-29T07:29:52.468Z,72.05
2023-03-29T07:32:20.939Z,71.38
2023-03-29T07:34:49.341Z,70.68
2023-03-29T07:37:17.603Z,71.08
2023-03-29T07:39:46.101Z,70.23
2023-03-29T07:42:15.913Z,70.13
2023-03-29T07:44:45.998Z,70.04
2023-03-29T07:47:14.487Z,69.95
2023-03-29T07:49:43.183Z,70.00
2023-03-29T07:52:11.514Z,70.38
2023-03-29T07:54:39.943Z,70.43
2023-03-29T07:57:08.335Z,70.24
2023-03-29T07:59:36.703Z,70.93
2023-03-29T08:02:06.863Z,70.17
2023-03-29T08:04:35.180Z,68.66
2023-03-29T08:07:04.075Z,68.40
2023-03-29T08:09:32.367Z,67.36
2023-03-29T08:12:00.716Z,66.74
2023-03-29T08:14:29.249Z,66.46
2023-03-29T08:16:57.627Z,66.47
2023-03-29T08:19:27.912Z,66.11
2023-03-29T08:21:56.678Z,66.28
2023-03-29T08:24:25.059Z,66.62
2023-03-29T08:26:53.550Z,66.54
2023-03-29T08:29:22.628Z,66.91
2023-03-29T08:31:51.003Z,66.54
2023-03-29T08:34:19.288Z,67.13
2023-03-29T08:36:49.085Z,68.55
2023-03-29T08:39:19.470Z,69.00
2023-03-29T08:41:55.084Z,69.82
2023-03-29T08:44:36.448Z,70.18
2023-03-29T08:47:11.778Z,71.38
2023-03-29T08:49:42.069Z,72.62
2023-03-29T08:52:21.833Z,74.33
2023-03-29T08:54:52.566Z,75.05
2023-03-29T08:57:24.497Z,74.70
2023-03-29T08:59:54.306Z,75.28
2023-03-29T09:02:25.378Z,74.04
2023-03-29T09:04:54.321Z,74.28
2023-03-29T09:07:26.551Z,73.25
2023-03-29T09:09:55.298Z,72.44
2023-03-29T09:12:31.559Z,73.25
2023-03-29T09:15:08.726Z,72.57
2023-03-29T09:17:43.138Z,73.29
2023-03-29T09:20:21.990Z,73.39
2023-03-29T09:23:00.502Z,74.27
2023-03-29T09:25:50.843Z,74.88
2023-03-29T09:28:25.464Z,74.87
2023-03-29T09:30:59.510Z,75.73
2023-03-29T09:33:28.703Z,78.61
2023-03-29T09:36:02.254Z,78.90
2023-03-29T09:38:32.580Z,79.77
2023-03-29T09:41:06.905Z,80.37
2023-03-29T09:43:37.779Z,81.92
2023-03-29T09:46:08.631Z,81.20
2023-03-29T09:48:40.373Z,83.23
2023-03-29T09:51:11.665Z,84.59
2023-03-29T09:53:41.889Z,84.09
2023-03-29T09:56:10.840Z,85.13
2023-03-29T09:58:39.260Z,84.24
2023-03-29T10:01:09.569Z,85.06
2023-03-29T10:03:38.372Z,87.00
2023-03-29T10:06:09.876Z,88.42
2023-03-29T10:08:42.499Z,89.33
2023-03-29T10:11:14.726Z,90.69
2023-03-29T10:13:46.070Z,91.02
2023-03-29T10:16:20.641Z,90.75
2023-03-29T10:18:50.318Z,90.92
2023-03-29T10:21:21.195Z,91.11
2023-03-29T10:23:52.567Z,90.90
2023-03-29T10:26:28.120Z,91.57
2023-03-29T10:29:00.462Z,92.53
2023-03-29T10:31:31.381Z,90.54
2023-03-29T10:34:04.059Z,90.83
2023-03-29T10:36:32.391Z,90.93
2023-03-29T10:39:06.040Z,91.16
2023-03-29T10:41:35.121Z,91.89
2023-03-29T10:44:03.574Z,91.43
2023-03-29T10:46:33.158Z,91.63
2023-03-29T10:49:04.621Z,92.79
2023-03-29T10:51:34.810Z,93.07
2023-03-29T10:54:05.796Z,93.01
2023-03-29T10:56:40.381Z,93.01
2023-03-29T10:59:30.135Z,93.37
2023-03-29T11:02:46.005Z,95.80
2023-03-29T11:05:25.990Z,95.69
2023-03-29T11:08:07.038Z,96.76
2023-03-29T11:10:43.922Z,99.13
2023-03-29T11:13:16.867Z,100.00
2023-03-29T11:15:54.802Z,100.00
2023-03-29T11:18:35.609Z,100.00
2023-03-29T11:21:10.735Z,100.00
2023-03-29T11:23:49.591Z,100.00
2023-03-29T11:26:22.779Z,100.00
2023-03-29T11:28:54.576Z,100.00
2023-03-29T11:31:31.477Z,100.00
2023-03-29T11:34:15.721Z,100.00
2023-03-29T11:36:50.779Z,100.00
2023-03-29T11:39:27.174Z,100.00
2023-03-29T11:42:02.568Z,100.00
2023-03-29T11:44:32.278Z,100.00
2023-03-29T11:47:05.156Z,100.00
2023-03-29T11:49:37.480Z,100.00
2023-03-29T11:52:09.045Z,100.00
2023-03-29T11:54:41.130Z,100.00
2023-03-29T11:57:16.036Z,100.00
2023-03-29T11:59:50.761Z,100.00
2023-03-29T12:02:24.239Z,100.00
2023-03-29T12:04:54.448Z,100.00
2023-03-29T12:07:28.313Z,100.00
2023-03-29T12:10:00.550Z,100.00
2023-03-29T12:12:36.881Z,100.00
2023-03-29T12:15:07.822Z,100.00
2023-03-29T12:17:39.684Z,100.00
2023-03-29T12:20:13.524Z,100.00
2023-03-29T12:22:42.207Z,100.00
2023-03-29T12:25:18.475Z,100.00
2023-03-29T12:28:01.149Z,100.00
2023-03-29T12:30:39.052Z,100.00
2023-03-29T12:33:39.119Z,100.00
2023-03-29T12:36:16.597Z,100.00
2023-03-29T12:38:45.717Z,100.00
2023-03-29T12:41:19.237Z,100.00
2023-03-29T12:43:49.595Z,100.00
2023-03-29T12:46:19.562Z,100.00
2023-03-29T12:48:50.965Z,100.00
2023-03-29T12:51:21.791Z,100.00
2023-03-29T12:53:51.992Z,100.00
2023-03-29T12:56:23.771Z,100.00
2023-03-29T12:58:57.808Z,100.00
2023-03-29T13:01:29.525Z,100.00
2023-03-29T13:04:18.775Z,100.00
2023-03-29T13:07:05.138Z,100.00
2023-03-29T13:09:37.725Z,100.00
2023-03-29T13:12:09.151Z,100.00
2023-03-29T13:14:42.917Z,100.00
2023-03-29T13:17:18.743Z,100.00
2023-03-29T13:19:50.408Z,100.00
2023-03-29T13:22:26.595Z,100.00
2023-03-29T13:25:11.289Z,100.00
2023-03-29T13:27:46.832Z,100.00
2023-03-29T13:30:22.967Z,100.00
2023-03-29T13:32:57.109Z,100.00
2023-03-29T13:35:35.607Z,100.00
2023-03-29T13:38:10.573Z,100.00
2023-03-29T13:40:48.035Z,100.00
2023-03-29T13:43:25.073Z,100.00
2023-03-29T13:46:06.900Z,100.00
2023-03-29T13:48:51.256Z,100.00
2023-03-29T13:51:28.940Z,100.00
2023-03-29T13:54:00.811Z,100.00
2023-03-29T13:56:32.980Z,100.00
2023-03-29T13:59:06.332Z,100.00
2023-03-29T14:01:39.634Z,100.00
2023-03-29T14:04:14.169Z,100.00
2023-03-29T14:06:43.487Z,100.00
2023-03-29T14:09:15.558Z,100.00
2023-03-29T14:11:45.993Z,100.00
2023-03-29T14:14:14.896Z,100.00
2023-03-29T14:16:44.663Z,100.00
2023-03-29T14:19:17.811Z,100.00
2023-03-29T14:21:46.750Z,100.00
2023-03-29T14:24:24.479Z,100.00
2023-03-29T14:26:54.497Z,100.00
2023-03-29T14:29:25.388Z,100.00
2023-03-29T14:31:55.963Z,100.00
2023-03-29T14:34:24.442Z,100.00
2023-03-29T14:36:54.094Z,100.00
2023-03-29T14:39:23.766Z,100.00
2023-03-29T14:41:53.334Z,100.00
